sensor_id;sensor_type;location;lat;lon;timestamp;temperature;humidity
20858;DHT22;10589;53.636;10.012;2023-05-07T03:45:13;8.70;99.90
20858;DHT22;10589;53.636;10.012;2023-05-07T03:47:38;8.70;99.90
20858;DHT22;10589;53.636;10.012;2023-05-07T03:50:04;8.70;99.90
20858;DHT22;10589;53.636;10.012;2023-05-07T03:52:30;8.70;99.90
20858;DHT22;10589;53.636;10.012;2023-05-07T03:54:56;8.70;99.90
20858;DHT22;10589;53.636;10.012;2023-05-07T03:57:21;8.70;99.90
20858;DHT22;10589;53.636;10.012;2023-05-07T03:59:47;8.80;99.90
20858;DHT22;10589;53.636;10.012;2023-05-07T04:02:12;8.80;99.90
20858;DHT22;10589;53.636;10.012;2023-05-07T04:04:38;8.80;99.90
20858;DHT22;10589;53.636;10.012;2023-05-07T04:07:04;8.80;99.90
20858;DHT22;10589;53.636;10.012;2023-05-07T04:09:29;8.80;99.90
20858;DHT22;10589;53.636;10.012;2023-05-07T04:11:55;8.80;99.90
20858;DHT22;10589;53.636;10.012;2023-05-07T04:14:21;8.80;99.90
20858;DHT22;10589;53.636;10.012;2023-05-07T04:16:46;8.80;99.90
20858;DHT22;10589;53.636;10.012;2023-05-07T04:19:12;8.80;99.90
20858;DHT22;10589;53.636;10.012;2023-05-07T04:21:38;8.80;99.90
20858;DHT22;10589;53.636;10.012;2023-05-07T04:24:03;8.80;99.90
20858;DHT22;10589;53.636;10.012;2023-05-07T04:26:29;8.80;99.90
20858;DHT22;10589;53.636;10.012;2023-05-07T04:28:55;8.90;99.90
20858;DHT22;10589;53.636;10.012;2023-05-07T04:31:22;8.90;99.90
20858;DHT22;10589;53.636;10.012;2023-05-07T04:33:47;8.80;99.90
20858;DHT22;10589;53.636;10.012;2023-05-07T04:36:13;8.90;99.90
20858;DHT22;10589;53.636;10.012;2023-05-07T04:38:38;8.90;99.90
20858;DHT22;10589;53.636;10.012;2023-05-07T04:41:05;8.90;99.90
20858;DHT22;10589;53.636;10.012;2023-05-07T04:43:31;8.90;99.90
20858;DHT22;10589;53.636;10.012;2023-05-07T04:45:57;8.90;99.90
20858;DHT22;10589;53.636;10.012;2023-05-07T04:48:22;8.90;99.90
20858;DHT22;10589;53.636;10.012;2023-05-07T04:50:49;8.90;99.90
20858;DHT22;10589;53.636;10.012;2023-05-07T04:53:16;8.90;99.90
20858;DHT22;10589;53.636;10.012;2023-05-07T04:55:42;8.90;99.90
20858;DHT22;10589;53.636;10.012;2023-05-07T04:58:08;8.90;99.90
20858;DHT22;10589;53.636;10.012;2023-05-07T05:00:34;8.90;99.90
20858;DHT22;10589;53.636;10.012;2023-05-07T05:02:59;8.90;99.90
20858;DHT22;10589;53.636;10.012;2023-05-07T05:05:25;9.00;99.90
20858;DHT22;10589;53.636;10.012;2023-05-07T05:07:51;9.00;99.90
20858;DHT22;10589;53.636;10.012;2023-05-07T05:10:17;9.00;99.90
20858;DHT22;10589;53.636;10.012;2023-05-07T05:12:43;9.00;99.90
20858;DHT22;10589;53.636;10.012;2023-05-07T05:15:09;9.00;99.90
20858;DHT22;10589;53.636;10.012;2023-05-07T05:17:35;9.10;99.90
20858;DHT22;10589;53.636;10.012;2023-05-07T05:20:02;9.10;99.90
20858;DHT22;10589;53.636;10.012;2023-05-07T05:22:27;9.10;99.90
20858;DHT22;10589;53.636;10.012;2023-05-07T05:24:55;9.10;99.90
20858;DHT22;10589;53.636;10.012;2023-05-07T05:27:20;9.10;99.90
20858;DHT22;10589;53.636;10.012;2023-05-07T05:29:46;9.20;99.90
20858;DHT22;10589;53.636;10.012;2023-05-07T05:32:11;9.20;99.90
20858;DHT22;10589;53.636;10.012;2023-05-07T05:34:37;9.20;99.90
20858;DHT22;10589;53.636;10.012;2023-05-07T05:37:02;9.20;99.90
20858;DHT22;10589;53.636;10.012;2023-05-07T05:39:28;9.20;99.90
20858;DHT22;10589;53.636;10.012;2023-05-07T05:41:54;9.30;99.90
20858;DHT22;10589;53.636;10.012;2023-05-07T05:44:19;9.30;99.90
20858;DHT22;10589;53.636;10.012;2023-05-07T05:46:45;9.40;99.90
20858;DHT22;10589;53.636;10.012;2023-05-07T05:49:11;9.40;99.90
20858;DHT22;10589;53.636;10.012;2023-05-07T05:51:36;9.40;99.90
20858;DHT22;10589;53.636;10.012;2023-05-07T05:54:02;9.50;99.90
20858;DHT22;10589;53.636;10.012;2023-05-07T05:56:27;9.50;99.90
20858;DHT22;10589;53.636;10.012;2023-05-07T05:58:53;9.50;99.90
20858;DHT22;10589;53.636;10.012;2023-05-07T06:01:19;9.50;99.90
20858;DHT22;10589;53.636;10.012;2023-05-07T06:03:44;9.50;99.90
20858;DHT22;10589;53.636;10.012;2023-05-07T06:06:10;9.50;99.90
20858;DHT22;10589;53.636;10.012;2023-05-07T06:08:36;9.50;99.90
20858;DHT22;10589;53.636;10.012;2023-05-07T06:11:02;9.50;99.90
20858;DHT22;10589;53.636;10.012;2023-05-07T06:13:28;9.50;99.90
20858;DHT22;10589;53.636;10.012;2023-05-07T06:15:53;9.60;99.90
20858;DHT22;10589;53.636;10.012;2023-05-07T06:18:19;9.60;99.90
20858;DHT22;10589;53.636;10.012;2023-05-07T06:20:45;9.60;99.90
20858;DHT22;10589;53.636;10.012;2023-05-07T06:23:10;9.70;99.90
20858;DHT22;10589;53.636;10.012;2023-05-07T06:25:36;9.60;99.90
20858;DHT22;10589;53.636;10.012;2023-05-07T06:28:02;9.70;99.90
20858;DHT22;10589;53.636;10.012;2023-05-07T06:30:28;9.70;99.90
20858;DHT22;10589;53.636;10.012;2023-05-07T06:32:53;9.70;99.90
20858;DHT22;10589;53.636;10.012;2023-05-07T06:35:19;9.70;99.90
20858;DHT22;10589;53.636;10.012;2023-05-07T06:37:45;9.70;99.90
20858;DHT22;10589;53.636;10.012;2023-05-07T06:40:11;9.70;99.90
20858;DHT22;10589;53.636;10.012;2023-05-07T06:42:36;9.70;99.90
20858;DHT22;10589;53.636;10.012;2023-05-07T06:45:03;9.70;99.90
20858;DHT22;10589;53.636;10.012;2023-05-07T06:47:28;9.70;99.90
20858;DHT22;10589;53.636;10.012;2023-05-07T06:49:54;9.80;99.90
20858;DHT22;10589;53.636;10.012;2023-05-07T06:52:20;9.80;99.90
20858;DHT22;10589;53.636;10.012;2023-05-07T06:54:45;9.90;99.90
20858;DHT22;10589;53.636;10.012;2023-05-07T06:57:11;9.90;99.90
20858;DHT22;10589;53.636;10.012;2023-05-07T06:59:36;9.90;99.90
20858;DHT22;10589;53.636;10.012;2023-05-07T07:02:02;9.90;99.90
20858;DHT22;10589;53.636;10.012;2023-05-07T07:04:28;9.90;99.90
20858;DHT22;10589;53.636;10.012;2023-05-07T07:06:54;10.00;99.90
20858;DHT22;10589;53.636;10.012;2023-05-07T07:09:20;10.00;99.90
20858;DHT22;10589;53.636;10.012;2023-05-07T07:11:45;10.00;99.90
20858;DHT22;10589;53.636;10.012;2023-05-07T07:14:11;10.00;99.90
20858;DHT22;10589;53.636;10.012;2023-05-07T07:16:36;10.00;99.90
20858;DHT22;10589;53.636;10.012;2023-05-07T07:19:02;10.10;99.90
20858;DHT22;10589;53.636;10.012;2023-05-07T07:21:27;10.10;99.90
20858;DHT22;10589;53.636;10.012;2023-05-07T07:23:53;10.10;99.90
20858;DHT22;10589;53.636;10.012;2023-05-07T07:26:19;10.20;99.90
20858;DHT22;10589;53.636;10.012;2023-05-07T07:28:45;10.30;99.90
20858;DHT22;10589;53.636;10.012;2023-05-07T07:31:11;10.40;99.90
20858;DHT22;10589;53.636;10.012;2023-05-07T07:33:37;10.50;99.90
20858;DHT22;10589;53.636;10.012;2023-05-07T07:36:03;10.40;99.90
20858;DHT22;10589;53.636;10.012;2023-05-07T07:38:29;10.40;99.90
20858;DHT22;10589;53.636;10.012;2023-05-07T07:40:54;10.40;99.90
20858;DHT22;10589;53.636;10.012;2023-05-07T07:43:20;10.60;99.90
20858;DHT22;10589;53.636;10.012;2023-05-07T07:45:45;10.60;99.90
20858;DHT22;10589;53.636;10.012;2023-05-07T07:48:11;10.70;99.90
20858;DHT22;10589;53.636;10.012;2023-05-07T07:50:37;10.70;99.90
20858;DHT22;10589;53.636;10.012;2023-05-07T07:53:03;10.70;99.90
20858;DHT22;10589;53.636;10.012;2023-05-07T07:55:28;10.80;99.90
20858;DHT22;10589;53.636;10.012;2023-05-07T07:57:54;10.90;99.90
20858;DHT22;10589;53.636;10.012;2023-05-07T08:00:20;11.00;99.90
20858;DHT22;10589;53.636;10.012;2023-05-07T08:02:46;11.00;99.90
20858;DHT22;10589;53.636;10.012;2023-05-07T08:05:11;10.90;99.90
20858;DHT22;10589;53.636;10.012;2023-05-07T08:07:37;10.90;99.90
20858;DHT22;10589;53.636;10.012;2023-05-07T08:10:03;10.80;99.90
20858;DHT22;10589;53.636;10.012;2023-05-07T08:12:29;10.80;99.90
20858;DHT22;10589;53.636;10.012;2023-05-07T08:14:55;11.00;99.90
20858;DHT22;10589;53.636;10.012;2023-05-07T08:17:20;11.00;99.90
20858;DHT22;10589;53.636;10.012;2023-05-07T08:19:48;10.80;99.90
20858;DHT22;10589;53.636;10.012;2023-05-07T08:22:13;10.80;99.90
20858;DHT22;10589;53.636;10.012;2023-05-07T08:24:40;10.90;99.90
20858;DHT22;10589;53.636;10.012;2023-05-07T08:27:05;10.80;99.90
20858;DHT22;10589;53.636;10.012;2023-05-07T08:29:31;10.80;99.90
20858;DHT22;10589;53.636;10.012;2023-05-07T08:31:56;10.80;99.90
20858;DHT22;10589;53.636;10.012;2023-05-07T08:34:22;10.80;99.90
20858;DHT22;10589;53.636;10.012;2023-05-07T08:36:50;11.00;99.90
20858;DHT22;10589;53.636;10.012;2023-05-07T08:39:15;11.00;99.90
20858;DHT22;10589;53.636;10.012;2023-05-07T08:41:44;10.90;99.90
20858;DHT22;10589;53.636;10.012;2023-05-07T08:44:14;11.00;99.90
20858;DHT22;10589;53.636;10.012;2023-05-07T08:46:41;11.00;99.90
20858;DHT22;10589;53.636;10.012;2023-05-07T08:49:08;11.10;99.90
20858;DHT22;10589;53.636;10.012;2023-05-07T08:51:35;11.10;99.90
20858;DHT22;10589;53.636;10.012;2023-05-07T08:54:01;11.10;99.90
20858;DHT22;10589;53.636;10.012;2023-05-07T08:56:27;11.20;99.90
20858;DHT22;10589;53.636;10.012;2023-05-07T08:58:52;11.20;99.90
20858;DHT22;10589;53.636;10.012;2023-05-07T09:01:22;11.30;99.90
20858;DHT22;10589;53.636;10.012;2023-05-07T09:03:47;11.30;99.90
20858;DHT22;10589;53.636;10.012;2023-05-07T09:06:13;11.30;99.90
20858;DHT22;10589;53.636;10.012;2023-05-07T09:08:39;11.40;99.90
20858;DHT22;10589;53.636;10.012;2023-05-07T09:11:05;11.50;99.90
20858;DHT22;10589;53.636;10.012;2023-05-07T09:13:30;11.50;99.90
20858;DHT22;10589;53.636;10.012;2023-05-07T09:15:56;11.50;99.90
20858;DHT22;10589;53.636;10.012;2023-05-07T09:18:24;11.50;99.90
20858;DHT22;10589;53.636;10.012;2023-05-07T09:20:50;11.70;99.90
20858;DHT22;10589;53.636;10.012;2023-05-07T09:23:16;11.70;99.90
20858;DHT22;10589;53.636;10.012;2023-05-07T09:25:42;11.70;99.90
20858;DHT22;10589;53.636;10.012;2023-05-07T09:28:07;11.70;99.90
20858;DHT22;10589;53.636;10.012;2023-05-07T09:30:35;11.70;99.90
20858;DHT22;10589;53.636;10.012;2023-05-07T09:33:03;11.80;99.90
20858;DHT22;10589;53.636;10.012;2023-05-07T09:35:29;11.90;99.90
20858;DHT22;10589;53.636;10.012;2023-05-07T09:37:59;12.00;99.90
20858;DHT22;10589;53.636;10.012;2023-05-07T09:40:28;11.90;99.90
20858;DHT22;10589;53.636;10.012;2023-05-07T09:42:54;12.10;99.90
20858;DHT22;10589;53.636;10.012;2023-05-07T09:45:25;12.40;99.90
20858;DHT22;10589;53.636;10.012;2023-05-07T09:47:55;12.50;99.90
20858;DHT22;10589;53.636;10.012;2023-05-07T09:50:27;12.30;99.90
20858;DHT22;10589;53.636;10.012;2023-05-07T09:52:55;12.20;99.90
20858;DHT22;10589;53.636;10.012;2023-05-07T09:55:21;12.20;99.90
20858;DHT22;10589;53.636;10.012;2023-05-07T09:57:50;12.20;99.90
20858;DHT22;10589;53.636;10.012;2023-05-07T10:00:18;12.30;99.90
20858;DHT22;10589;53.636;10.012;2023-05-07T10:02:46;12.40;99.90
20858;DHT22;10589;53.636;10.012;2023-05-07T10:05:14;12.50;99.90
20858;DHT22;10589;53.636;10.012;2023-05-07T10:07:41;12.80;99.90
20858;DHT22;10589;53.636;10.012;2023-05-07T10:10:07;13.10;99.90
20858;DHT22;10589;53.636;10.012;2023-05-07T10:12:33;13.20;99.90
20858;DHT22;10589;53.636;10.012;2023-05-07T10:15:07;13.30;99.90
20858;DHT22;10589;53.636;10.012;2023-05-07T10:17:37;13.10;99.90
20858;DHT22;10589;53.636;10.012;2023-05-07T10:20:05;12.90;99.90
20858;DHT22;10589;53.636;10.012;2023-05-07T10:22:43;12.90;99.90
20858;DHT22;10589;53.636;10.012;2023-05-07T10:25:18;12.90;99.90
20858;DHT22;10589;53.636;10.012;2023-05-07T10:27:47;12.90;99.90
20858;DHT22;10589;53.636;10.012;2023-05-07T10:33:12;12.90;99.90
20858;DHT22;10589;53.636;10.012;2023-05-07T10:35:41;12.80;99.90
20858;DHT22;10589;53.636;10.012;2023-05-07T10:38:08;12.70;99.90
20858;DHT22;10589;53.636;10.012;2023-05-07T10:40:34;12.60;99.90
20858;DHT22;10589;53.636;10.012;2023-05-07T10:43:01;12.70;99.90
20858;DHT22;10589;53.636;10.012;2023-05-07T10:45:29;12.80;99.90
20858;DHT22;10589;53.636;10.012;2023-05-07T10:48:12;12.90;99.90
20858;DHT22;10589;53.636;10.012;2023-05-07T10:50:39;12.90;99.90
20858;DHT22;10589;53.636;10.012;2023-05-07T10:55:45;12.80;99.90
20858;DHT22;10589;53.636;10.012;2023-05-07T10:58:24;13.00;99.90
20858;DHT22;10589;53.636;10.012;2023-05-07T11:01:01;13.20;99.90
20858;DHT22;10589;53.636;10.012;2023-05-07T11:03:27;13.30;99.90
20858;DHT22;10589;53.636;10.012;2023-05-07T11:06:12;13.40;99.90
20858;DHT22;10589;53.636;10.012;2023-05-07T11:11:19;13.20;99.90
20858;DHT22;10589;53.636;10.012;2023-05-07T11:13:48;13.20;99.90
20858;DHT22;10589;53.636;10.012;2023-05-07T11:16:24;13.20;99.90
20858;DHT22;10589;53.636;10.012;2023-05-07T11:18:55;13.40;99.90
20858;DHT22;10589;53.636;10.012;2023-05-07T11:21:38;13.60;99.90
20858;DHT22;10589;53.636;10.012;2023-05-07T11:24:04;13.70;99.90
20858;DHT22;10589;53.636;10.012;2023-05-07T11:26:45;13.80;99.90
20858;DHT22;10589;53.636;10.012;2023-05-07T11:29:13;13.70;99.90
20858;DHT22;10589;53.636;10.012;2023-05-07T11:31:39;13.80;99.90
20858;DHT22;10589;53.636;10.012;2023-05-07T11:34:05;13.80;99.90
20858;DHT22;10589;53.636;10.012;2023-05-07T11:36:33;13.60;99.90
20858;DHT22;10589;53.636;10.012;2023-05-07T11:38:58;13.70;99.90
20858;DHT22;10589;53.636;10.012;2023-05-07T11:41:34;14.10;99.90
20858;DHT22;10589;53.636;10.012;2023-05-07T11:44:00;14.40;99.90
20858;DHT22;10589;53.636;10.012;2023-05-07T11:46:27;14.50;99.90
20858;DHT22;10589;53.636;10.012;2023-05-07T11:48:53;14.60;99.90
20858;DHT22;10589;53.636;10.012;2023-05-07T11:51:24;14.70;99.90
20858;DHT22;10589;53.636;10.012;2023-05-07T11:53:52;14.90;99.90
20858;DHT22;10589;53.636;10.012;2023-05-07T11:56:18;14.60;99.90
20858;DHT22;10589;53.636;10.012;2023-05-07T11:58:46;14.60;99.90
20858;DHT22;10589;53.636;10.012;2023-05-07T12:01:12;14.70;99.90
20858;DHT22;10589;53.636;10.012;2023-05-07T12:03:42;14.80;99.90
20858;DHT22;10589;53.636;10.012;2023-05-07T12:06:09;15.10;99.90
20858;DHT22;10589;53.636;10.012;2023-05-07T12:08:39;15.10;99.90
20858;DHT22;10589;53.636;10.012;2023-05-07T12:11:08;15.10;99.90
20858;DHT22;10589;53.636;10.012;2023-05-07T12:13:36;15.20;99.90
20858;DHT22;10589;53.636;10.012;2023-05-07T12:16:02;15.20;99.90
20858;DHT22;10589;53.636;10.012;2023-05-07T12:18:31;15.10;99.90
20858;DHT22;10589;53.636;10.012;2023-05-07T12:20:57;15.10;99.90
20858;DHT22;10589;53.636;10.012;2023-05-07T12:23:23;15.10;99.90
20858;DHT22;10589;53.636;10.012;2023-05-07T12:25:48;15.00;99.90
20858;DHT22;10589;53.636;10.012;2023-05-07T12:28:15;15.20;99.90
20858;DHT22;10589;53.636;10.012;2023-05-07T12:30:46;15.40;99.90
20858;DHT22;10589;53.636;10.012;2023-05-07T12:33:17;15.60;99.90
20858;DHT22;10589;53.636;10.012;2023-05-07T12:35:43;15.60;99.90
20858;DHT22;10589;53.636;10.012;2023-05-07T12:38:14;15.80;99.90
20858;DHT22;10589;53.636;10.012;2023-05-07T12:40:44;16.30;99.90
20858;DHT22;10589;53.636;10.012;2023-05-07T12:45:47;16.60;99.90
20858;DHT22;10589;53.636;10.012;2023-05-07T12:48:14;17.30;99.90
20858;DHT22;10589;53.636;10.012;2023-05-07T12:50:39;17.90;99.90
20858;DHT22;10589;53.636;10.012;2023-05-07T12:53:06;17.90;99.90
20858;DHT22;10589;53.636;10.012;2023-05-07T12:55:46;18.20;99.90
20858;DHT22;10589;53.636;10.012;2023-05-07T13:00:53;18.00;99.90
20858;DHT22;10589;53.636;10.012;2023-05-07T13:03:27;17.90;99.90
20858;DHT22;10589;53.636;10.012;2023-05-07T13:05:55;18.20;99.90
20858;DHT22;10589;53.636;10.012;2023-05-07T13:08:28;18.30;99.90
20858;DHT22;10589;53.636;10.012;2023-05-07T13:10:55;18.10;99.90
20858;DHT22;10589;53.636;10.012;2023-05-07T13:13:21;18.50;99.90
20858;DHT22;10589;53.636;10.012;2023-05-07T13:15:47;19.00;99.90
20858;DHT22;10589;53.636;10.012;2023-05-07T13:18:13;20.20;99.90
20858;DHT22;10589;53.636;10.012;2023-05-07T13:20:39;20.80;99.90
20858;DHT22;10589;53.636;10.012;2023-05-07T13:23:06;21.70;99.90
20858;DHT22;10589;53.636;10.012;2023-05-07T13:25:31;21.80;99.90
20858;DHT22;10589;53.636;10.012;2023-05-07T13:27:57;22.50;99.90
20858;DHT22;10589;53.636;10.012;2023-05-07T13:30:23;22.60;99.90
20858;DHT22;10589;53.636;10.012;2023-05-07T13:32:48;22.00;99.90
20858;DHT22;10589;53.636;10.012;2023-05-07T13:35:16;22.30;99.90
20858;DHT22;10589;53.636;10.012;2023-05-07T13:37:41;22.90;99.90
20858;DHT22;10589;53.636;10.012;2023-05-07T13:40:07;22.60;99.90
20858;DHT22;10589;53.636;10.012;2023-05-07T13:42:33;22.20;99.90
20858;DHT22;10589;53.636;10.012;2023-05-07T13:44:58;21.70;99.90
20858;DHT22;10589;53.636;10.012;2023-05-07T13:47:24;21.80;99.90
20858;DHT22;10589;53.636;10.012;2023-05-07T13:49:50;21.90;99.90
20858;DHT22;10589;53.636;10.012;2023-05-07T13:52:16;20.90;99.90
20858;DHT22;10589;53.636;10.012;2023-05-07T13:54:42;21.10;99.90
20858;DHT22;10589;53.636;10.012;2023-05-07T13:57:07;22.30;99.90
20858;DHT22;10589;53.636;10.012;2023-05-07T13:59:33;23.30;99.90
20858;DHT22;10589;53.636;10.012;2023-05-07T14:01:59;23.50;99.90
20858;DHT22;10589;53.636;10.012;2023-05-07T14:04:24;24.00;99.90
20858;DHT22;10589;53.636;10.012;2023-05-07T14:06:51;24.20;99.90
20858;DHT22;10589;53.636;10.012;2023-05-07T14:09:17;24.10;99.90
20858;DHT22;10589;53.636;10.012;2023-05-07T14:11:42;24.70;99.90
20858;DHT22;10589;53.636;10.012;2023-05-07T14:14:08;23.50;99.90
20858;DHT22;10589;53.636;10.012;2023-05-07T14:16:36;22.90;99.90
20858;DHT22;10589;53.636;10.012;2023-05-07T14:19:02;22.40;99.90
20858;DHT22;10589;53.636;10.012;2023-05-07T14:21:28;21.40;99.90
20858;DHT22;10589;53.636;10.012;2023-05-07T14:23:53;20.70;99.90
20858;DHT22;10589;53.636;10.012;2023-05-07T14:26:19;20.00;99.90
20858;DHT22;10589;53.636;10.012;2023-05-07T14:28:46;19.70;99.90
20858;DHT22;10589;53.636;10.012;2023-05-07T14:31:12;19.40;99.90
20858;DHT22;10589;53.636;10.012;2023-05-07T14:33:38;19.00;99.90
20858;DHT22;10589;53.636;10.012;2023-05-07T14:36:03;18.70;99.90
20858;DHT22;10589;53.636;10.012;2023-05-07T14:38:29;18.60;99.90
20858;DHT22;10589;53.636;10.012;2023-05-07T14:40:55;18.30;99.90
20858;DHT22;10589;53.636;10.012;2023-05-07T14:43:22;18.00;99.90
20858;DHT22;10589;53.636;10.012;2023-05-07T14:45:47;18.20;99.90
20858;DHT22;10589;53.636;10.012;2023-05-07T14:48:13;18.30;99.90
20858;DHT22;10589;53.636;10.012;2023-05-07T14:50:43;18.80;99.90
20858;DHT22;10589;53.636;10.012;2023-05-07T14:53:08;19.20;99.90
20858;DHT22;10589;53.636;10.012;2023-05-07T14:55:34;19.50;99.90
20858;DHT22;10589;53.636;10.012;2023-05-07T14:58:00;20.00;99.90
20858;DHT22;10589;53.636;10.012;2023-05-07T15:00:26;20.30;99.90
20858;DHT22;10589;53.636;10.012;2023-05-07T15:02:52;21.10;99.90
20858;DHT22;10589;53.636;10.012;2023-05-07T15:05:18;21.30;99.90
20858;DHT22;10589;53.636;10.012;2023-05-07T15:07:44;21.40;99.90
20858;DHT22;10589;53.636;10.012;2023-05-07T15:10:10;21.40;99.90
20858;DHT22;10589;53.636;10.012;2023-05-07T15:12:36;21.00;99.90
20858;DHT22;10589;53.636;10.012;2023-05-07T15:15:02;20.50;99.90
20858;DHT22;10589;53.636;10.012;2023-05-07T15:17:27;20.70;99.90
20858;DHT22;10589;53.636;10.012;2023-05-07T15:19:53;20.10;99.90
20858;DHT22;10589;53.636;10.012;2023-05-07T15:22:19;20.00;99.90
20858;DHT22;10589;53.636;10.012;2023-05-07T15:24:46;19.60;99.90
20858;DHT22;10589;53.636;10.012;2023-05-07T15:27:12;19.10;99.90
20858;DHT22;10589;53.636;10.012;2023-05-07T15:29:37;19.00;99.90
20858;DHT22;10589;53.636;10.012;2023-05-07T15:32:03;19.00;99.90
20858;DHT22;10589;53.636;10.012;2023-05-07T15:34:28;18.80;99.90
20858;DHT22;10589;53.636;10.012;2023-05-07T15:36:55;18.50;99.90
20858;DHT22;10589;53.636;10.012;2023-05-07T15:39:22;18.00;99.90
20858;DHT22;10589;53.636;10.012;2023-05-07T15:41:48;17.70;99.90
20858;DHT22;10589;53.636;10.012;2023-05-07T15:44:13;17.60;99.90
20858;DHT22;10589;53.636;10.012;2023-05-07T15:46:39;17.50;99.90
20858;DHT22;10589;53.636;10.012;2023-05-07T15:49:05;17.40;99.90
20858;DHT22;10589;53.636;10.012;2023-05-07T15:51:30;17.50;99.90
20858;DHT22;10589;53.636;10.012;2023-05-07T15:53:56;17.40;99.90
20858;DHT22;10589;53.636;10.012;2023-05-07T15:56:22;17.40;99.90
20858;DHT22;10589;53.636;10.012;2023-05-07T15:58:48;17.30;99.90
20858;DHT22;10589;53.636;10.012;2023-05-07T16:01:14;17.30;99.90
20858;DHT22;10589;53.636;10.012;2023-05-07T16:03:39;17.20;99.90
20858;DHT22;10589;53.636;10.012;2023-05-07T16:06:06;17.30;99.90
20858;DHT22;10589;53.636;10.012;2023-05-07T16:08:32;17.30;99.90
20858;DHT22;10589;53.636;10.012;2023-05-07T16:10:58;17.20;99.90
20858;DHT22;10589;53.636;10.012;2023-05-07T16:13:23;17.10;99.90
20858;DHT22;10589;53.636;10.012;2023-05-07T16:15:55;17.00;99.90
20858;DHT22;10589;53.636;10.012;2023-05-07T16:18:24;16.80;99.90
20858;DHT22;10589;53.636;10.012;2023-05-07T16:20:49;16.80;99.90
20858;DHT22;10589;53.636;10.012;2023-05-07T16:23:15;16.80;99.90
20858;DHT22;10589;53.636;10.012;2023-05-07T16:25:41;16.70;99.90
20858;DHT22;10589;53.636;10.012;2023-05-07T16:28:06;16.80;99.90
20858;DHT22;10589;53.636;10.012;2023-05-07T16:30:32;16.80;99.90
20858;DHT22;10589;53.636;10.012;2023-05-07T16:32:58;16.80;99.90
20858;DHT22;10589;53.636;10.012;2023-05-07T16:35:23;16.90;99.90
20858;DHT22;10589;53.636;10.012;2023-05-07T16:37:49;17.80;99.90
20858;DHT22;10589;53.636;10.012;2023-05-07T16:40:15;18.50;99.90
20858;DHT22;10589;53.636;10.012;2023-05-07T16:42:41;18.40;99.90
20858;DHT22;10589;53.636;10.012;2023-05-07T16:45:06;18.40;99.90
20858;DHT22;10589;53.636;10.012;2023-05-07T16:47:33;18.40;99.90
20858;DHT22;10589;53.636;10.012;2023-05-07T16:49:59;18.30;99.90
20858;DHT22;10589;53.636;10.012;2023-05-07T16:52:30;18.40;99.90
20858;DHT22;10589;53.636;10.012;2023-05-07T16:54:56;18.10;99.90
20858;DHT22;10589;53.636;10.012;2023-05-07T16:57:28;18.00;99.90
20858;DHT22;10589;53.636;10.012;2023-05-07T16:59:55;18.50;99.90
20858;DHT22;10589;53.636;10.012;2023-05-07T17:02:21;19.70;99.90
20858;DHT22;10589;53.636;10.012;2023-05-07T17:04:46;20.40;99.90
20858;DHT22;10589;53.636;10.012;2023-05-07T17:07:12;20.80;99.90
20858;DHT22;10589;53.636;10.012;2023-05-07T17:09:39;21.20;99.90
20858;DHT22;10589;53.636;10.012;2023-05-07T17:12:05;20.50;99.90
20858;DHT22;10589;53.636;10.012;2023-05-07T17:14:31;19.80;99.90
20858;DHT22;10589;53.636;10.012;2023-05-07T17:16:56;19.10;99.90
20858;DHT22;10589;53.636;10.012;2023-05-07T17:19:22;18.30;99.90
20858;DHT22;10589;53.636;10.012;2023-05-07T17:21:48;18.20;99.90
20858;DHT22;10589;53.636;10.012;2023-05-07T17:24:13;17.90;99.90
20858;DHT22;10589;53.636;10.012;2023-05-07T17:26:39;17.60;99.90
20858;DHT22;10589;53.636;10.012;2023-05-07T17:29:08;17.20;99.90
20858;DHT22;10589;53.636;10.012;2023-05-07T17:31:34;17.10;99.90
20858;DHT22;10589;53.636;10.012;2023-05-07T17:33:59;16.90;99.90
20858;DHT22;10589;53.636;10.012;2023-05-07T17:36:25;16.80;99.90
20858;DHT22;10589;53.636;10.012;2023-05-07T17:38:51;16.60;99.90
20858;DHT22;10589;53.636;10.012;2023-05-07T17:41:17;16.60;99.90
20858;DHT22;10589;53.636;10.012;2023-05-07T17:43:43;16.40;99.90
20858;DHT22;10589;53.636;10.012;2023-05-07T17:46:08;16.30;99.90
20858;DHT22;10589;53.636;10.012;2023-05-07T17:48:34;16.20;99.90
20858;DHT22;10589;53.636;10.012;2023-05-07T17:51:01;16.20;99.90
20858;DHT22;10589;53.636;10.012;2023-05-07T17:53:27;16.10;99.90
20858;DHT22;10589;53.636;10.012;2023-05-07T17:55:53;16.00;99.90
20858;DHT22;10589;53.636;10.012;2023-05-07T17:58:18;16.00;99.90
20858;DHT22;10589;53.636;10.012;2023-05-07T18:00:44;15.90;99.90
20858;DHT22;10589;53.636;10.012;2023-05-07T18:03:10;15.80;99.90
20858;DHT22;10589;53.636;10.012;2023-05-07T18:05:35;15.70;99.90
20858;DHT22;10589;53.636;10.012;2023-05-07T18:08:02;15.60;99.90
20858;DHT22;10589;53.636;10.012;2023-05-07T18:10:27;15.50;99.90
20858;DHT22;10589;53.636;10.012;2023-05-07T18:12:53;15.50;99.90
20858;DHT22;10589;53.636;10.012;2023-05-07T18:15:19;15.40;99.90
20858;DHT22;10589;53.636;10.012;2023-05-07T18:17:44;15.30;99.90
20858;DHT22;10589;53.636;10.012;2023-05-07T18:20:10;15.20;99.90
20858;DHT22;10589;53.636;10.012;2023-05-07T18:22:37;15.20;99.90
20858;DHT22;10589;53.636;10.012;2023-05-07T18:25:03;15.10;99.90
20858;DHT22;10589;53.636;10.012;2023-05-07T18:27:29;15.00;99.90
20858;DHT22;10589;53.636;10.012;2023-05-07T18:29:55;15.00;99.90
20858;DHT22;10589;53.636;10.012;2023-05-07T18:32:21;14.90;99.90
20858;DHT22;10589;53.636;10.012;2023-05-07T18:34:47;14.80;99.90
20858;DHT22;10589;53.636;10.012;2023-05-07T18:37:13;14.80;99.90
20858;DHT22;10589;53.636;10.012;2023-05-07T18:39:38;14.70;99.90
20858;DHT22;10589;53.636;10.012;2023-05-07T18:42:04;14.60;99.90
20858;DHT22;10589;53.636;10.012;2023-05-07T18:44:30;14.50;99.90
20858;DHT22;10589;53.636;10.012;2023-05-07T18:46:56;14.50;99.90
20858;DHT22;10589;53.636;10.012;2023-05-07T18:49:22;14.40;99.90
20858;DHT22;10589;53.636;10.012;2023-05-07T18:51:48;14.40;99.90
20858;DHT22;10589;53.636;10.012;2023-05-07T18:54:14;14.20;99.90
20858;DHT22;10589;53.636;10.012;2023-05-07T18:56:40;14.20;99.90
20858;DHT22;10589;53.636;10.012;2023-05-07T18:59:06;14.10;99.90
20858;DHT22;10589;53.636;10.012;2023-05-07T19:01:33;14.10;99.90
20858;DHT22;10589;53.636;10.012;2023-05-07T19:03:58;14.00;99.90
20858;DHT22;10589;53.636;10.012;2023-05-07T19:06:24;13.90;99.90
20858;DHT22;10589;53.636;10.012;2023-05-07T19:08:51;13.80;99.90
20858;DHT22;10589;53.636;10.012;2023-05-07T19:11:17;13.70;99.90
20858;DHT22;10589;53.636;10.012;2023-05-07T19:13:42;13.70;99.90